Time;durP1;ratioP1;P1;durP2;ratioP2;P2;SDS_P1;SDS_P2;PMS_P1;PMS_P2;Temp;Humidity;BMP_temperature;BMP_pressure;BME280_temperature;BME280_humidity;BME280_pressure;Samples;Min_cycle;Max_cycle;Signal;HPM_P1;HPM_P2
2022/06/18 00:00:19;;;;;;;4.97;3.20;;;;;;;;;;4946030;28;20261;-73
2022/06/18 00:02:44;;;;;;;3.33;3.00;;;;;;;;;;4977412;28;20236;-73
2022/06/18 00:05:11;;;;;;;3.95;3.15;;;;;;;;;;4977504;28;20210;-72
2022/06/18 00:07:39;;;;;;;3.45;3.15;;;;;;;;;;4961844;28;20218;-74
2022/06/18 00:10:06;;;;;;;3.35;3.05;;;;;;;;;;4976743;28;20219;-73
2022/06/18 00:15:22;;;;;;;3.75;3.22;;;;;;;;;;4992735;28;20226;-73
2022/06/18 00:17:50;;;;;;;4.35;3.63;;;;;;;;;;4937558;28;20230;-73
2022/06/18 00:20:16;;;;;;;3.50;3.20;;;;;;;;;;4993025;28;20225;-73
2022/06/18 00:22:47;;;;;;;4.60;3.08;;;;;;;;;;4959908;28;20223;-73
2022/06/18 00:25:37;;;;;;;3.47;3.17;;;;;;;;;;4960691;28;20230;-73
2022/06/18 00:28:04;;;;;;;3.28;3.00;;;;;;;;;;4976999;28;20730;-73
2022/06/18 00:30:30;;;;;;;6.95;3.50;;;;;;;;;;4943413;28;20221;-73
2022/06/18 00:32:58;;;;;;;5.07;3.53;;;;;;;;;;4978103;28;20218;-73
2022/06/18 00:35:26;;;;;;;4.95;3.22;;;;;;;;;;4945858;28;20233;-74
2022/06/18 00:37:56;;;;;;;3.38;3.08;;;;;;;;;;4978297;28;20226;-74
2022/06/18 00:40:24;;;;;;;3.45;3.15;;;;;;;;;;4946364;28;20302;-73
2022/06/18 00:42:53;;;;;;;3.42;3.13;;;;;;;;;;4975657;28;20746;-73
2022/06/18 00:45:22;;;;;;;3.60;3.30;;;;;;;;;;4977859;28;20239;-73
2022/06/18 00:48:04;;;;;;;3.40;3.10;;;;;;;;;;4962285;28;20763;-73
2022/06/18 00:50:31;;;;;;;6.78;3.45;;;;;;;;;;4979265;28;20233;-73
2022/06/18 00:53:00;;;;;;;6.00;3.17;;;;;;;;;;4956320;28;20232;-73
2022/06/18 00:55:33;;;;;;;4.22;3.28;;;;;;;;;;4974909;28;20217;-73
2022/06/18 00:58:04;;;;;;;3.28;2.97;;;;;;;;;;4976230;28;20799;-73
2022/06/18 01:00:41;;;;;;;3.47;3.10;;;;;;;;;;4958373;28;20247;-73
2022/06/18 01:03:31;;;;;;;3.35;3.10;;;;;;;;;;4974812;28;20225;-73
2022/06/18 01:06:14;;;;;;;3.97;3.30;;;;;;;;;;4964423;28;20253;-73
2022/06/18 01:08:40;;;;;;;3.70;3.30;;;;;;;;;;4982500;28;20297;-73
2022/06/18 01:11:08;;;;;;;3.33;3.00;;;;;;;;;;4999110;28;20498;-74
2022/06/18 01:13:35;;;;;;;3.47;3.17;;;;;;;;;;4993815;28;20213;-72
2022/06/18 01:16:01;;;;;;;4.18;3.20;;;;;;;;;;4976412;28;20232;-73
2022/06/18 01:18:28;;;;;;;4.25;3.20;;;;;;;;;;4975575;28;20218;-72
2022/06/18 01:21:16;;;;;;;3.58;3.28;;;;;;;;;;4963883;28;20228;-73
2022/06/18 01:23:48;;;;;;;4.00;3.20;;;;;;;;;;4986145;28;20295;-73
2022/06/18 01:26:15;;;;;;;4.82;3.47;;;;;;;;;;4989570;28;20754;-74
2022/06/18 01:28:45;;;;;;;3.25;3.00;;;;;;;;;;4990198;28;20306;-74
2022/06/18 01:31:14;;;;;;;3.83;3.45;;;;;;;;;;4973622;28;20628;-73
2022/06/18 01:33:40;;;;;;;3.40;3.10;;;;;;;;;;4974580;28;20210;-73
2022/06/18 01:36:13;;;;;;;4.45;3.25;;;;;;;;;;4990068;28;20225;-73
2022/06/18 01:38:43;;;;;;;3.90;3.35;;;;;;;;;;4945252;28;20871;-73
2022/06/18 01:44:43;;;;;;;3.58;3.28;;;;;;;;;;4972259;28;20229;-74
2022/06/18 01:47:18;;;;;;;3.78;3.28;;;;;;;;;;4988870;28;20730;-74
2022/06/18 01:49:53;;;;;;;3.35;3.15;;;;;;;;;;4991088;28;20260;-74
2022/06/18 01:52:23;;;;;;;3.22;3.00;;;;;;;;;;4984402;28;20306;-74
2022/06/18 01:54:56;;;;;;;4.35;3.45;;;;;;;;;;4958890;28;20217;-73
2022/06/18 01:57:30;;;;;;;3.65;3.33;;;;;;;;;;4944163;28;20264;-73
2022/06/18 02:00:02;;;;;;;3.75;3.53;;;;;;;;;;4959752;28;20245;-74
2022/06/18 02:02:41;;;;;;;3.80;3.50;;;;;;;;;;4959293;28;20707;-74
2022/06/18 02:05:10;;;;;;;3.80;3.40;;;;;;;;;;4974028;28;21070;-73
2022/06/18 02:07:43;;;;;;;3.72;3.40;;;;;;;;;;4973787;28;20233;-73
2022/06/18 02:10:12;;;;;;;4.55;3.38;;;;;;;;;;4940581;28;20230;-73
2022/06/18 02:12:38;;;;;;;4.50;4.10;;;;;;;;;;4939784;28;20365;-73
2022/06/18 02:15:09;;;;;;;4.70;3.38;;;;;;;;;;4957889;28;20300;-72
2022/06/18 02:17:34;;;;;;;3.83;3.33;;;;;;;;;;4956776;28;20721;-73
2022/06/18 02:20:20;;;;;;;4.03;3.63;;;;;;;;;;4954839;28;20241;-74
2022/06/18 02:22:48;;;;;;;3.70;3.40;;;;;;;;;;4974520;28;20226;-73
2022/06/18 02:25:14;;;;;;;3.40;3.15;;;;;;;;;;4956089;28;20253;-73
2022/06/18 02:27:42;;;;;;;6.25;3.45;;;;;;;;;;4940830;28;20280;-73
2022/06/18 02:30:16;;;;;;;4.05;3.72;;;;;;;;;;4956094;28;20222;-74
2022/06/18 02:33:24;;;;;;;4.05;3.65;;;;;;;;;;4923195;28;20225;-73
2022/06/18 02:35:52;;;;;;;3.83;3.40;;;;;;;;;;4953694;28;20225;-73
2022/06/18 02:38:19;;;;;;;4.90;3.40;;;;;;;;;;4936882;28;20774;-73
2022/06/18 02:40:44;;;;;;;3.33;3.03;;;;;;;;;;4924149;28;20249;-74
2022/06/18 02:43:10;;;;;;;4.43;3.20;;;;;;;;;;4938608;28;20230;-74
2022/06/18 02:45:36;;;;;;;3.35;3.05;;;;;;;;;;4924509;28;20258;-72
2022/06/18 02:48:01;;;;;;;3.65;3.35;;;;;;;;;;4955657;28;20230;-73
2022/06/18 02:50:34;;;;;;;4.28;3.53;;;;;;;;;;4949666;28;20245;-72
2022/06/18 02:53:02;;;;;;;4.13;3.47;;;;;;;;;;4940132;28;20225;-74
2022/06/18 02:55:28;;;;;;;3.60;3.30;;;;;;;;;;4946292;28;20747;-73
2022/06/18 02:58:03;;;;;;;3.55;3.35;;;;;;;;;;4940376;28;20222;-73
2022/06/18 03:00:29;;;;;;;3.78;3.42;;;;;;;;;;4924724;28;20723;-72
2022/06/18 03:02:58;;;;;;;3.60;3.35;;;;;;;;;;4941022;28;20226;-73
2022/06/18 03:05:28;;;;;;;4.03;3.70;;;;;;;;;;4954802;28;20226;-73
2022/06/18 03:07:57;;;;;;;3.60;3.30;;;;;;;;;;4936208;28;20264;-73
2022/06/18 03:13:09;;;;;;;3.67;3.38;;;;;;;;;;4937440;28;20231;-74
2022/06/18 03:15:39;;;;;;;3.55;3.25;;;;;;;;;;4950601;28;20233;-73
2022/06/18 03:18:06;;;;;;;4.28;3.05;;;;;;;;;;4938632;28;20223;-73
2022/06/18 03:20:50;;;;;;;6.43;3.38;;;;;;;;;;4926023;28;20227;-72
2022/06/18 03:23:18;;;;;;;3.97;3.67;;;;;;;;;;4940245;28;20222;-73
2022/06/18 03:25:44;;;;;;;3.67;3.38;;;;;;;;;;4949882;28;20235;-73
2022/06/18 03:28:11;;;;;;;4.18;3.45;;;;;;;;;;4953974;28;20225;-71
2022/06/18 03:30:39;;;;;;;4.40;3.40;;;;;;;;;;4925034;28;20226;-72
2022/06/18 03:33:05;;;;;;;3.83;3.30;;;;;;;;;;4953126;28;20650;-72
2022/06/18 03:35:31;;;;;;;3.40;3.10;;;;;;;;;;4936468;28;20604;-73
2022/06/18 03:37:57;;;;;;;3.65;3.25;;;;;;;;;;4936866;28;20226;-73
2022/06/18 03:40:25;;;;;;;3.53;3.22;;;;;;;;;;4952777;28;20744;-73
2022/06/18 03:42:52;;;;;;;3.88;3.20;;;;;;;;;;4951466;28;20298;-73
2022/06/18 03:45:21;;;;;;;3.72;3.05;;;;;;;;;;4920042;28;20717;-72
2022/06/18 03:47:47;;;;;;;3.55;3.22;;;;;;;;;;4950891;28;20938;-73
2022/06/18 03:50:16;;;;;;;3.35;3.05;;;;;;;;;;4983812;28;20219;-72
2022/06/18 03:52:48;;;;;;;3.40;3.10;;;;;;;;;;4954914;28;20647;-71
2022/06/18 03:55:16;;;;;;;5.22;3.35;;;;;;;;;;4969360;28;20224;-71
2022/06/18 03:58:31;;;;;;;4.55;3.38;;;;;;;;;;4957970;28;20226;-71
2022/06/18 04:00:59;;;;;;;3.70;3.40;;;;;;;;;;4979616;28;20237;-71
2022/06/18 04:03:25;;;;;;;3.70;3.40;;;;;;;;;;4967919;28;20225;-71
2022/06/18 04:05:50;;;;;;;4.38;3.25;;;;;;;;;;4967469;28;20221;-71
2022/06/18 04:08:20;;;;;;;4.50;3.10;;;;;;;;;;4953624;28;20222;-71
2022/06/18 04:10:52;;;;;;;4.32;3.38;;;;;;;;;;4951891;28;20218;-71
2022/06/18 04:13:18;;;;;;;3.00;2.80;;;;;;;;;;4968959;28;20912;-71
2022/06/18 04:15:53;;;;;;;3.10;2.80;;;;;;;;;;4974298;28;20284;-72
2022/06/18 04:18:24;;;;;;;4.75;3.15;;;;;;;;;;4972405;28;20229;-73
2022/06/18 04:20:52;;;;;;;3.50;3.20;;;;;;;;;;4967658;28;20646;-70
2022/06/18 04:23:18;;;;;;;4.30;3.10;;;;;;;;;;4933318;28;20219;-70
2022/06/18 04:25:45;;;;;;;3.75;3.08;;;;;;;;;;4967869;28;20276;-72
2022/06/18 04:28:14;;;;;;;3.58;2.78;;;;;;;;;;4963096;28;20277;-72
2022/06/18 04:36:44;;;;;;;3.00;2.80;;;;;;;;;;5107222;28;20611;-72
2022/06/18 04:39:24;;;;;;;3.30;3.00;;;;;;;;;;5055970;28;20918;-72
2022/06/18 04:41:56;;;;;;;4.53;3.05;;;;;;;;;;5080226;28;20233;-75
2022/06/18 04:44:25;;;;;;;3.05;2.80;;;;;;;;;;5078124;28;20216;-74
2022/06/18 04:46:55;;;;;;;3.08;2.88;;;;;;;;;;5094704;28;20249;-75
2022/06/18 04:49:22;;;;;;;4.22;2.80;;;;;;;;;;5082732;28;20733;-72
2022/06/18 04:51:48;;;;;;;2.85;2.65;;;;;;;;;;5095432;28;20224;-74
2022/06/18 04:54:22;;;;;;;2.72;2.22;;;;;;;;;;5116006;27;20602;-74
2022/06/18 04:57:08;;;;;;;;;;;;;;;;;;;;;
2022/06/18 04:59:41;;;;;;;4.90;2.40;;;;;;;;;;5099281;28;20248;-79
2022/06/18 05:02:19;;;;;;;3.28;2.40;;;;;;;;;;5114405;28;20214;-75
2022/06/18 05:05:14;;;;;;;3.83;2.80;;;;;;;;;;5089832;28;20274;-74
2022/06/18 05:07:58;;;;;;;2.72;2.50;;;;;;;;;;5101778;28;20238;-73
2022/06/18 05:10:40;;;;;;;2.58;2.40;;;;;;;;;;5104099;28;20646;-74
2022/06/18 05:13:31;;;;;;;2.60;2.40;;;;;;;;;;5101730;27;20616;-72
2022/06/18 05:16:15;;;;;;;3.95;2.30;;;;;;;;;;5117493;27;20227;-74
2022/06/18 05:18:45;;;;;;;2.70;2.50;;;;;;;;;;5103010;28;20221;-73
2022/06/18 05:21:12;;;;;;;2.85;2.40;;;;;;;;;;5082998;28;20217;-74
2022/06/18 05:23:40;;;;;;;2.33;2.10;;;;;;;;;;5094394;28;20500;-73
2022/06/18 05:26:12;;;;;;;2.45;2.25;;;;;;;;;;5092079;28;20335;-72
2022/06/18 05:28:41;;;;;;;2.35;2.15;;;;;;;;;;5087327;28;20774;-74
2022/06/18 05:31:07;;;;;;;3.10;2.03;;;;;;;;;;5082089;27;20225;-73
2022/06/18 05:33:33;;;;;;;4.10;2.10;;;;;;;;;;5086954;28;20282;-72
2022/06/18 05:36:00;;;;;;;5.40;2.30;;;;;;;;;;5106005;28;20304;-73
2022/06/18 05:38:26;;;;;;;4.00;2.20;;;;;;;;;;5088356;27;20784;-73
2022/06/18 05:40:52;;;;;;;3.45;2.10;;;;;;;;;;5086091;28;20260;-73
2022/06/18 05:43:20;;;;;;;4.50;2.30;;;;;;;;;;5089837;28;20629;-73
2022/06/18 05:45:48;;;;;;;2.10;1.92;;;;;;;;;;5102850;28;20801;-73
2022/06/18 05:48:13;;;;;;;2.42;2.20;;;;;;;;;;5081120;28;20229;-72
2022/06/18 05:50:39;;;;;;;2.40;2.20;;;;;;;;;;5089374;28;20225;-73
2022/06/18 05:53:07;;;;;;;4.07;2.20;;;;;;;;;;5063408;28;20230;-73
2022/06/18 05:55:55;;;;;;;2.40;2.20;;;;;;;;;;5094368;28;20618;-73
2022/06/18 05:58:35;;;;;;;2.78;2.00;;;;;;;;;;5094822;28;20229;-73
2022/06/18 06:01:12;;;;;;;4.75;2.30;;;;;;;;;;5090704;28;20642;-72
2022/06/18 06:03:38;;;;;;;2.35;1.80;;;;;;;;;;5098873;28;20228;-71
2022/06/18 06:06:06;;;;;;;2.15;1.95;;;;;;;;;;5091440;28;20289;-72
2022/06/18 06:08:36;;;;;;;2.50;2.20;;;;;;;;;;5084299;28;20241;-72
2022/06/18 06:13:46;;;;;;;4.10;2.22;;;;;;;;;;5119038;28;20239;-73
2022/06/18 06:16:11;;;;;;;4.35;2.20;;;;;;;;;;5097573;28;20210;-74
2022/06/18 06:18:37;;;;;;;3.85;2.20;;;;;;;;;;5111114;28;20225;-73
2022/06/18 06:21:03;;;;;;;4.28;2.20;;;;;;;;;;5095702;28;20221;-72
2022/06/18 06:23:28;;;;;;;2.45;2.17;;;;;;;;;;5095113;28;20217;-73
2022/06/18 06:25:54;;;;;;;4.78;2.30;;;;;;;;;;5088089;28;20313;-72
2022/06/18 06:28:24;;;;;;;3.40;2.10;;;;;;;;;;5101860;28;20286;-73
2022/06/18 06:30:49;;;;;;;2.92;2.38;;;;;;;;;;5096181;28;20286;-73
2022/06/18 06:33:15;;;;;;;4.80;2.50;;;;;;;;;;5062714;28;20688;-72
2022/06/18 06:35:43;;;;;;;6.15;2.65;;;;;;;;;;5084197;28;20836;-72
2022/06/18 06:38:10;;;;;;;2.65;2.42;;;;;;;;;;5071316;28;20257;-72
2022/06/18 06:40:35;;;;;;;3.15;2.30;;;;;;;;;;5088110;28;20205;-72
2022/06/18 06:43:01;;;;;;;5.95;3.00;;;;;;;;;;5093741;28;20226;-77
2022/06/18 06:45:29;;;;;;;3.72;2.50;;;;;;;;;;5068652;28;20386;-76
2022/06/18 06:47:58;;;;;;;3.47;2.58;;;;;;;;;;5078102;28;20217;-73
2022/06/18 06:50:27;;;;;;;4.25;2.30;;;;;;;;;;5086291;28;20225;-72
2022/06/18 06:52:53;;;;;;;4.22;2.70;;;;;;;;;;5098020;28;20248;-72
2022/06/18 06:58:09;;;;;;;3.42;2.60;;;;;;;;;;5100942;28;21019;-73
2022/06/18 07:00:37;;;;;;;3.58;2.40;;;;;;;;;;5080098;28;20218;-72
2022/06/18 07:03:07;;;;;;;3.20;2.50;;;;;;;;;;5088101;28;20246;-73
2022/06/18 07:05:34;;;;;;;3.10;2.80;;;;;;;;;;5065844;28;20221;-73
2022/06/18 07:08:00;;;;;;;4.13;2.90;;;;;;;;;;5101667;28;20247;-73
2022/06/18 07:10:26;;;;;;;3.53;2.90;;;;;;;;;;5080506;28;20666;-73
2022/06/18 07:12:51;;;;;;;4.55;2.90;;;;;;;;;;5089324;28;20218;-74
2022/06/18 07:15:17;;;;;;;5.45;2.42;;;;;;;;;;5082039;28;20217;-73
2022/06/18 07:17:42;;;;;;;3.25;2.70;;;;;;;;;;5094699;28;20230;-74
2022/06/18 07:20:20;;;;;;;5.25;2.75;;;;;;;;;;5074107;28;20691;-73
2022/06/18 07:23:04;;;;;;;4.25;2.72;;;;;;;;;;5082243;28;20193;-74
2022/06/18 07:32:30;;;;;;;7.57;3.05;;;;;;;;;;4996257;28;20762;-73
2022/06/18 07:34:56;;;;;;;4.30;3.17;;;;;;;;;;5020113;28;20266;-74
2022/06/18 07:37:22;;;;;;;4.80;2.80;;;;;;;;;;5053902;28;20390;-74
2022/06/18 07:39:49;;;;;;;5.07;3.20;;;;;;;;;;5058428;28;20287;-73
2022/06/18 07:42:18;;;;;;;7.07;3.22;;;;;;;;;;5045425;28;20610;-74
2022/06/18 07:44:44;;;;;;;3.90;3.10;;;;;;;;;;5024228;28;20215;-73
2022/06/18 07:47:17;;;;;;;6.72;3.70;;;;;;;;;;5057916;28;20272;-74
2022/06/18 07:49:54;;;;;;;4.28;2.90;;;;;;;;;;5044612;28;20231;-73
2022/06/18 07:52:20;;;;;;;5.10;3.13;;;;;;;;;;5063771;28;20227;-74
2022/06/18 07:54:53;;;;;;;3.20;2.90;;;;;;;;;;5080688;28;20222;-71
2022/06/18 07:57:21;;;;;;;5.50;2.78;;;;;;;;;;5041564;28;20234;-74
2022/06/18 07:59:47;;;;;;;4.65;2.72;;;;;;;;;;5072847;28;20788;-72
2022/06/18 08:02:12;;;;;;;6.10;3.17;;;;;;;;;;5030159;28;20310;-72
2022/06/18 08:04:38;;;;;;;4.18;3.03;;;;;;;;;;5042344;28;20237;-72
2022/06/18 08:07:03;;;;;;;5.38;2.78;;;;;;;;;;5037401;28;20219;-74
2022/06/18 08:09:32;;;;;;;4.47;3.30;;;;;;;;;;5023315;28;20226;-73
2022/06/18 08:12:01;;;;;;;4.45;2.85;;;;;;;;;;5047739;28;20238;-73
2022/06/18 08:14:27;;;;;;;3.45;2.83;;;;;;;;;;5030082;28;20948;-74
2022/06/18 08:16:55;;;;;;;5.47;3.05;;;;;;;;;;5060604;28;20235;-74
2022/06/18 08:19:23;;;;;;;4.78;3.30;;;;;;;;;;5045542;28;20215;-74
2022/06/18 08:21:48;;;;;;;6.30;3.00;;;;;;;;;;5037798;28;20276;-74
2022/06/18 08:24:17;;;;;;;4.85;3.45;;;;;;;;;;5030259;28;20215;-75
2022/06/18 08:26:42;;;;;;;4.40;3.30;;;;;;;;;;5032724;28;20258;-74
2022/06/18 08:29:14;;;;;;;7.22;3.30;;;;;;;;;;5043364;28;20223;-74
2022/06/18 08:31:39;;;;;;;8.82;3.88;;;;;;;;;;5029949;28;20230;-74
2022/06/18 08:34:07;;;;;;;4.45;2.97;;;;;;;;;;5061028;28;20234;-75
2022/06/18 08:36:38;;;;;;;5.82;3.28;;;;;;;;;;5054931;28;20230;-75
2022/06/18 08:39:06;;;;;;;5.00;3.33;;;;;;;;;;5028714;28;20239;-75
2022/06/18 08:41:49;;;;;;;5.63;3.25;;;;;;;;;;5029074;28;20218;-74
2022/06/18 08:44:53;;;;;;;8.15;3.60;;;;;;;;;;5042741;28;20222;-75
2022/06/18 08:47:24;;;;;;;5.55;3.63;;;;;;;;;;5062179;28;20231;-75
2022/06/18 08:49:49;;;;;;;14.32;3.95;;;;;;;;;;5055105;28;20235;-75
2022/06/18 08:52:34;;;;;;;7.22;3.60;;;;;;;;;;5057893;28;20219;-75
2022/06/18 08:55:10;;;;;;;7.07;3.50;;;;;;;;;;5071710;28;20285;-74
2022/06/18 08:57:54;;;;;;;4.63;3.60;;;;;;;;;;5075352;28;20234;-75
2022/06/18 09:00:36;;;;;;;5.45;3.70;;;;;;;;;;5058172;28;20218;-75
2022/06/18 09:03:22;;;;;;;5.15;3.53;;;;;;;;;;5023976;28;20235;-75
2022/06/18 09:06:24;;;;;;;5.53;3.60;;;;;;;;;;5055104;28;20301;-76
2022/06/18 09:09:08;;;;;;;5.35;3.72;;;;;;;;;;5038674;28;20230;-74
2022/06/18 09:12:08;;;;;;;6.45;4.05;;;;;;;;;;5054324;28;20231;-74
2022/06/18 09:15:26;;;;;;;6.38;3.88;;;;;;;;;;5073628;28;20594;-74
2022/06/18 09:18:01;;;;;;;4.75;3.63;;;;;;;;;;5046771;28;20227;-73
2022/06/18 09:20:34;;;;;;;5.32;3.67;;;;;;;;;;5065358;28;20219;-74
2022/06/18 09:23:38;;;;;;;5.43;3.40;;;;;;;;;;5048009;28;20610;-74
2022/06/18 09:26:10;;;;;;;5.63;3.70;;;;;;;;;;5049401;28;20306;-72
2022/06/18 09:28:45;;;;;;;8.65;3.95;;;;;;;;;;5059690;28;20312;-73
2022/06/18 09:31:31;;;;;;;6.60;3.88;;;;;;;;;;5011314;28;20223;-74
2022/06/18 09:34:21;;;;;;;4.97;3.70;;;;;;;;;;5051589;28;20238;-74
2022/06/18 09:36:52;;;;;;;6.53;4.00;;;;;;;;;;5058308;28;20211;-73
2022/06/18 09:39:37;;;;;;;6.97;3.53;;;;;;;;;;5032036;28;20784;-73
2022/06/18 09:42:09;;;;;;;7.63;4.00;;;;;;;;;;5031538;28;20665;-74
2022/06/18 09:44:53;;;;;;;4.80;3.72;;;;;;;;;;5031811;28;20219;-74
2022/06/18 09:47:26;;;;;;;8.60;3.60;;;;;;;;;;5051512;28;20218;-73
2022/06/18 09:49:51;;;;;;;6.18;3.30;;;;;;;;;;5035665;28;20231;-72
2022/06/18 09:52:27;;;;;;;7.20;3.70;;;;;;;;;;5041239;28;20230;-73
2022/06/18 09:55:07;;;;;;;6.60;3.50;;;;;;;;;;5028547;28;20257;-74
2022/06/18 09:57:35;;;;;;;6.10;3.30;;;;;;;;;;5049601;28;20246;-74
2022/06/18 10:00:10;;;;;;;4.80;3.22;;;;;;;;;;5041336;28;20254;-73
2022/06/18 10:02:42;;;;;;;4.25;3.42;;;;;;;;;;5062405;28;20329;-74
2022/06/18 10:07:58;;;;;;;4.95;3.08;;;;;;;;;;5036449;28;20230;-73
2022/06/18 10:10:25;;;;;;;8.07;3.28;;;;;;;;;;5029732;28;20275;-73
2022/06/18 10:13:00;;;;;;;9.00;3.33;;;;;;;;;;5049307;28;20212;-73
2022/06/18 10:15:26;;;;;;;6.10;3.78;;;;;;;;;;5027928;28;20661;-74
2022/06/18 10:18:07;;;;;;;6.07;3.17;;;;;;;;;;5046865;28;20345;-73
2022/06/18 10:20:47;;;;;;;5.72;3.38;;;;;;;;;;5050330;28;20250;-74
2022/06/18 10:23:40;;;;;;;5.70;3.40;;;;;;;;;;5040818;28;20225;-73
2022/06/18 10:26:11;;;;;;;7.57;3.92;;;;;;;;;;5061776;28;21394;-73
2022/06/18 10:29:02;;;;;;;8.18;3.42;;;;;;;;;;5073283;28;20307;-73
2022/06/18 10:31:38;;;;;;;5.53;3.53;;;;;;;;;;5061521;28;20232;-73
2022/06/18 10:34:28;;;;;;;6.78;3.60;;;;;;;;;;5057158;28;20679;-73
2022/06/18 10:37:30;;;;;;;7.35;3.35;;;;;;;;;;5073844;28;20219;-73
2022/06/18 10:40:33;;;;;;;7.95;3.70;;;;;;;;;;5075874;28;20240;-74
2022/06/18 10:43:12;;;;;;;5.40;3.00;;;;;;;;;;5060531;28;20609;-71
2022/06/18 10:45:48;;;;;;;5.70;3.22;;;;;;;;;;5050497;28;20360;-73
2022/06/18 10:48:34;;;;;;;13.50;4.00;;;;;;;;;;5076172;28;20233;-70
2022/06/18 10:51:00;;;;;;;6.50;3.17;;;;;;;;;;5043530;28;20277;-72
2022/06/18 10:53:28;;;;;;;10.20;3.47;;;;;;;;;;5051558;28;20238;-75
2022/06/18 10:56:02;;;;;;;5.63;3.50;;;;;;;;;;5032022;28;20223;-73
2022/06/18 10:58:27;;;;;;;6.95;3.10;;;;;;;;;;5063947;28;20234;-73
2022/06/18 11:01:03;;;;;;;9.77;3.75;;;;;;;;;;5033331;28;20223;-73
2022/06/18 11:03:30;;;;;;;6.25;3.60;;;;;;;;;;5058181;28;20230;-73
2022/06/18 11:05:55;;;;;;;7.20;3.40;;;;;;;;;;5017678;28;20234;-73
2022/06/18 11:08:29;;;;;;;7.97;3.75;;;;;;;;;;5061200;28;20222;-73
2022/06/18 11:11:08;;;;;;;10.32;3.97;;;;;;;;;;5032761;28;20231;-73
2022/06/18 11:13:42;;;;;;;6.45;3.40;;;;;;;;;;5051816;28;20222;-74
2022/06/18 11:16:20;;;;;;;7.53;3.50;;;;;;;;;;5042878;28;20285;-73
2022/06/18 11:18:47;;;;;;;6.05;3.42;;;;;;;;;;5058927;28;21110;-73
2022/06/18 11:21:39;;;;;;;18.50;4.13;;;;;;;;;;5024910;28;20203;-73
2022/06/18 11:24:10;;;;;;;5.57;3.08;;;;;;;;;;5070230;28;20222;-72
2022/06/18 11:26:38;;;;;;;7.25;3.70;;;;;;;;;;5043206;28;20234;-73
2022/06/18 11:29:18;;;;;;;8.30;3.58;;;;;;;;;;5051668;28;20721;-72
2022/06/18 11:31:48;;;;;;;6.53;3.40;;;;;;;;;;5038599;28;20284;-73
2022/06/18 11:34:40;;;;;;;8.00;3.65;;;;;;;;;;5043382;28;20254;-73
2022/06/18 11:37:21;;;;;;;8.55;3.70;;;;;;;;;;5052918;28;20341;-72
2022/06/18 11:40:15;;;;;;;8.95;3.67;;;;;;;;;;5025126;28;20709;-72
2022/06/18 11:42:51;;;;;;;26.60;4.72;;;;;;;;;;5046870;28;20246;-73
2022/06/18 11:45:29;;;;;;;10.88;3.83;;;;;;;;;;5030761;28;20227;-73
2022/06/18 11:48:33;;;;;;;7.28;3.90;;;;;;;;;;5061270;28;20231;-73
2022/06/18 11:51:19;;;;;;;7.70;3.83;;;;;;;;;;5056589;28;20285;-73
2022/06/18 11:54:17;;;;;;;8.15;3.58;;;;;;;;;;5061491;28;20321;-72
2022/06/18 11:57:11;;;;;;;3.70;3.17;;;;;;;;;;5016980;28;20231;-73
2022/06/18 11:59:40;;;;;;;9.63;3.83;;;;;;;;;;5046692;28;20223;-73
2022/06/18 12:02:13;;;;;;;8.15;3.67;;;;;;;;;;5064461;28;20231;-74
2022/06/18 12:04:43;;;;;;;10.02;3.90;;;;;;;;;;5022867;28;20607;-73
2022/06/18 12:07:26;;;;;;;6.70;3.40;;;;;;;;;;5042465;28;20219;-73
2022/06/18 12:09:54;;;;;;;8.93;3.58;;;;;;;;;;5057927;28;20765;-73
2022/06/18 12:12:46;;;;;;;6.68;3.60;;;;;;;;;;5039150;28;20251;-74
2022/06/18 12:15:34;;;;;;;8.15;3.58;;;;;;;;;;5062668;28;20217;-72
2022/06/18 12:18:12;;;;;;;14.10;3.78;;;;;;;;;;5075160;28;20231;-73
2022/06/18 12:21:11;;;;;;;8.43;3.50;;;;;;;;;;5023963;28;20652;-74
2022/06/18 12:23:55;;;;;;;7.28;3.90;;;;;;;;;;5040318;28;20226;-74
2022/06/18 12:26:32;;;;;;;5.28;3.60;;;;;;;;;;5055911;28;20728;-74
2022/06/18 12:29:31;;;;;;;6.25;3.65;;;;;;;;;;5056157;28;20234;-73
2022/06/18 12:32:17;;;;;;;5.28;3.47;;;;;;;;;;5040606;28;20241;-72
2022/06/18 12:34:49;;;;;;;5.80;3.20;;;;;;;;;;5058702;28;20226;-72
2022/06/18 12:37:39;;;;;;;6.47;3.65;;;;;;;;;;5045176;28;20234;-72
2022/06/18 12:40:16;;;;;;;10.00;3.45;;;;;;;;;;5042116;28;20283;-72
2022/06/18 12:42:52;;;;;;;4.85;3.45;;;;;;;;;;5057937;28;20218;-74
2022/06/18 12:45:42;;;;;;;8.23;3.40;;;;;;;;;;5021964;28;20211;-74
2022/06/18 12:48:15;;;;;;;12.27;3.90;;;;;;;;;;5072687;28;20235;-74
2022/06/18 12:50:51;;;;;;;6.75;3.25;;;;;;;;;;5042617;28;20222;-74
2022/06/18 12:53:29;;;;;;;7.68;3.72;;;;;;;;;;5031442;28;20775;-74
2022/06/18 12:56:09;;;;;;;5.90;3.17;;;;;;;;;;5044224;28;20253;-73
2022/06/18 12:58:38;;;;;;;5.35;3.40;;;;;;;;;;5042026;28;20327;-74
2022/06/18 13:01:07;;;;;;;5.95;3.22;;;;;;;;;;5065789;28;20707;-73
2022/06/18 13:03:57;;;;;;;6.30;3.25;;;;;;;;;;5052067;28;20215;-72
2022/06/18 13:06:54;;;;;;;6.05;3.38;;;;;;;;;;5076276;28;20307;-71
2022/06/18 13:09:47;;;;;;;6.40;3.45;;;;;;;;;;5062547;28;20219;-72
2022/06/18 13:12:41;;;;;;;6.97;3.40;;;;;;;;;;5024640;28;20277;-73
2022/06/18 13:15:28;;;;;;;6.15;3.50;;;;;;;;;;5044626;28;20268;-73
2022/06/18 13:18:23;;;;;;;18.00;3.67;;;;;;;;;;5043822;28;20300;-75
2022/06/18 13:20:57;;;;;;;7.60;3.20;;;;;;;;;;5053646;28;20292;-73
2022/06/18 13:29:01;;;;;;;6.25;2.92;;;;;;;;;;5045759;28;20250;-72
2022/06/18 13:31:41;;;;;;;7.63;3.17;;;;;;;;;;5058375;28;20231;-71
2022/06/18 13:34:25;;;;;;;8.55;3.13;;;;;;;;;;5057889;28;20230;-72
2022/06/18 13:37:14;;;;;;;8.88;3.38;;;;;;;;;;5062605;28;20329;-73
2022/06/18 13:39:50;;;;;;;5.07;2.80;;;;;;;;;;5063697;28;20227;-72
2022/06/18 13:42:21;;;;;;;7.47;3.13;;;;;;;;;;5058321;28;20242;-72
2022/06/18 13:45:08;;;;;;;8.27;2.70;;;;;;;;;;5037140;28;20250;-73
2022/06/18 13:47:54;;;;;;;6.85;3.10;;;;;;;;;;5076155;28;20245;-73
2022/06/18 13:50:20;;;;;;;7.90;3.08;;;;;;;;;;5042050;28;20301;-72
2022/06/18 13:52:46;;;;;;;5.13;3.00;;;;;;;;;;5040720;28;20772;-73
2022/06/18 13:55:13;;;;;;;6.63;3.17;;;;;;;;;;5063134;28;20230;-73
2022/06/18 13:57:45;;;;;;;7.97;2.80;;;;;;;;;;5061830;28;20231;-73
2022/06/18 14:00:23;;;;;;;8.15;2.90;;;;;;;;;;5058128;28;20283;-73
2022/06/18 14:03:18;;;;;;;5.07;2.90;;;;;;;;;;5048243;28;20218;-75
2022/06/18 14:05:46;;;;;;;8.18;2.97;;;;;;;;;;5029876;28;20233;-73
2022/06/18 14:08:29;;;;;;;4.30;2.90;;;;;;;;;;5051172;28;20242;-71
2022/06/18 14:10:59;;;;;;;5.78;2.97;;;;;;;;;;5032637;28;20241;-72
2022/06/18 14:13:25;;;;;;;6.15;2.97;;;;;;;;;;5048499;28;20234;-72
2022/06/18 14:15:59;;;;;;;10.88;3.20;;;;;;;;;;5076874;28;20711;-74
2022/06/18 14:18:25;;;;;;;6.53;2.92;;;;;;;;;;5054239;28;20628;-74
2022/06/18 14:21:07;;;;;;;7.75;2.90;;;;;;;;;;5024510;28;20202;-72
2022/06/18 14:23:37;;;;;;;9.85;3.17;;;;;;;;;;5050900;28;20230;-73
2022/06/18 14:26:21;;;;;;;10.00;2.90;;;;;;;;;;5029269;28;20298;-73
2022/06/18 14:28:49;;;;;;;6.35;2.90;;;;;;;;;;5055674;28;20234;-73
2022/06/18 14:31:47;;;;;;;7.35;2.85;;;;;;;;;;5054634;28;20420;-74
2022/06/18 14:34:37;;;;;;;7.78;2.85;;;;;;;;;;5050750;28;20298;-73
2022/06/18 14:37:04;;;;;;;5.80;2.80;;;;;;;;;;5076451;28;20238;-74
2022/06/18 14:39:48;;;;;;;6.65;2.72;;;;;;;;;;5049842;28;20987;-73
2022/06/18 14:42:22;;;;;;;5.40;2.40;;;;;;;;;;5046511;28;20230;-74
2022/06/18 14:44:54;;;;;;;4.88;2.40;;;;;;;;;;5060500;28;20606;-73
2022/06/18 14:47:42;;;;;;;4.97;2.50;;;;;;;;;;5059832;28;20967;-75
2022/06/18 14:50:26;;;;;;;4.85;2.22;;;;;;;;;;5043935;28;20219;-73
2022/06/18 14:53:43;;;;;;;8.40;2.40;;;;;;;;;;5069615;28;20301;-73
2022/06/18 14:56:33;;;;;;;5.40;2.65;;;;;;;;;;4989819;28;20293;-74
2022/06/18 14:59:07;;;;;;;4.95;2.55;;;;;;;;;;5037978;28;20251;-73
2022/06/18 15:01:33;;;;;;;5.07;2.40;;;;;;;;;;5062306;28;20234;-73
2022/06/18 15:04:09;;;;;;;6.00;2.47;;;;;;;;;;5064314;28;20239;-74
2022/06/18 15:06:35;;;;;;;5.10;2.45;;;;;;;;;;5035946;28;20223;-73
2022/06/18 15:09:04;;;;;;;4.78;2.50;;;;;;;;;;5031182;28;20318;-72
2022/06/18 15:11:38;;;;;;;4.95;2.45;;;;;;;;;;5035555;28;20346;-73
2022/06/18 15:14:03;;;;;;;5.90;2.47;;;;;;;;;;5042603;28;20237;-72
2022/06/18 15:16:45;;;;;;;4.72;2.90;;;;;;;;;;5026691;28;20223;-74
2022/06/18 15:19:35;;;;;;;5.03;2.60;;;;;;;;;;5055885;28;20217;-73
2022/06/18 15:22:05;;;;;;;2.72;2.10;;;;;;;;;;5031629;28;20246;-72
2022/06/18 15:27:34;;;;;;;5.18;2.00;;;;;;;;;;5055028;28;20296;-73
2022/06/18 15:30:28;;;;;;;2.92;1.75;;;;;;;;;;5043727;28;20976;-74
2022/06/18 15:32:56;;;;;;;5.20;1.98;;;;;;;;;;5047860;28;20223;-73
2022/06/18 15:35:23;;;;;;;3.20;1.80;;;;;;;;;;5045884;28;20212;-74
2022/06/18 15:37:50;;;;;;;2.65;1.75;;;;;;;;;;5058848;28;20219;-74
2022/06/18 15:40:25;;;;;;;3.40;1.77;;;;;;;;;;5030330;28;20222;-73
2022/06/18 15:42:52;;;;;;;2.85;1.90;;;;;;;;;;5062728;28;20360;-72
2022/06/18 15:45:23;;;;;;;3.60;2.00;;;;;;;;;;5045655;28;20230;-73
2022/06/18 15:47:49;;;;;;;2.95;1.70;;;;;;;;;;5058226;28;20896;-72
2022/06/18 15:50:24;;;;;;;4.60;1.88;;;;;;;;;;5026330;28;20268;-72
2022/06/18 15:52:52;;;;;;;3.38;1.70;;;;;;;;;;5056262;28;20235;-73
2022/06/18 15:55:45;;;;;;;3.25;1.67;;;;;;;;;;5046894;28;20218;-73
2022/06/18 15:58:11;;;;;;;1.60;1.48;;;;;;;;;;5057439;28;20230;-73
2022/06/18 16:00:37;;;;;;;2.08;1.70;;;;;;;;;;5044756;28;20223;-74
2022/06/18 16:03:11;;;;;;;3.17;1.55;;;;;;;;;;5051761;28;20336;-75